Portada
METAR-TAF:

METAR-TAF

Aeroports :

Sevilla, Espanya

latitud: 37-25N, longitud: 005-54W, altitud: 34 m

Observació

L'informe es va fer fa 37 minuts, a les 18:00 UTC
Vent 3 kt del Nord/Nord-Est
Temperatura 16°C
Humitat 63%
Pressió 1023 hPa
Visibilitat 10 km o més
sense núvols per sota de 1500 mi sense presència de cumulonimbus.

METAR: LEZL 101800Z 03003KT CAVOK 16/09 Q1023 NOSIG

Hora: 19:37 (18:37 UTC)

Pronòstic

L'informe es va fer fa 4 hores i 37 minuts, a les 14:00 UTC
Pronòstic vàlid del 10 a les 15 UTC al 11 a les 15 UTC
Vent 10 kt del Nord-Est
Visibilitat 10 km o més
sense núvols per sota de 1500 mi sense presència de cumulonimbus.
Evolucionant progressivament
l' 10 a les 18 UTC al 10 a les 21 UTC
Vent 3 kt amb direcció variable

TAF: LEZL 101400Z 1015/1115 05010KT CAVOK TX23/1015Z TN09/1107Z BECMG 1018/1021 VRB03KT

Observacions i pronòstics meteorològics de més de 4000 aeroports (METAR i TAF).

Les estacions disponibles són els punts grocs i vermells al mapa.

Posi el ratolí al punt desitjat per veure el nom de l'estació.

Feu clic per veure les observacions i els pronòstics meteorològics.

Per canviar el mapa: feu clic els botons verds amb una creu de color negre per apropar; al botó verd amb un guió per allunyar la imatge; o en les fletxes verdes per a mapes adjacents.


METAR-TAF: